Mijdrecht, Netherlands
Current Conditions -  °F | °C
As of 4:55 AM on Saturday 20 Dec 2014 (Local Time) from EHAM Reporting Station
Few Clouds Few Clouds  
Wind Chill: 38°   Ceiling: Unl
Heat Index: 46°   Visibility: 6mi
Dew Point: 39°   Wind: 26mph
Humidity: 76%   Direction: 270°W
Pressure: 30.06"   Gusts: NA
Location:  52.21°N, 4.86°E
Report Text: EHAM 200355Z 27023KT 9999 FEW025 08/04 Q1018 NOSIG
Loading
Personal Weather Stations






























Interactive Weather Map New forecast layout! Learn more

10-Day Weather Forecast

Advertisements
Track Severe Weather on mobile